sensor_id;sensor_type;location;lat;lon;timestamp;P1;durP1;ratioP1;P2;durP2;ratioP2
22415;SDS011;12204;50.600;4.608;2023-03-23T00:01:14;4.75;;;1.80;;
22415;SDS011;12204;50.600;4.608;2023-03-23T00:06:20;5.57;;;1.95;;
22415;SDS011;12204;50.600;4.608;2023-03-23T00:11:25;5.15;;;2.08;;
22415;SDS011;12204;50.600;4.608;2023-03-23T00:16:31;5.63;;;2.20;;
22415;SDS011;12204;50.600;4.608;2023-03-23T00:21:37;5.50;;;2.03;;
22415;SDS011;12204;50.600;4.608;2023-03-23T00:26:43;4.85;;;1.90;;
22415;SDS011;12204;50.600;4.608;2023-03-23T00:31:49;5.35;;;2.05;;
22415;SDS011;12204;50.600;4.608;2023-03-23T00:36:52;5.95;;;2.17;;
22415;SDS011;12204;50.600;4.608;2023-03-23T00:41:58;4.85;;;2.00;;
22415;SDS011;12204;50.600;4.608;2023-03-23T00:47:01;5.18;;;1.90;;
22415;SDS011;12204;50.600;4.608;2023-03-23T00:52:05;5.07;;;2.00;;
22415;SDS011;12204;50.600;4.608;2023-03-23T00:57:09;5.88;;;2.30;;
22415;SDS011;12204;50.600;4.608;2023-03-23T01:02:12;5.35;;;2.00;;
22415;SDS011;12204;50.600;4.608;2023-03-23T01:07:15;6.05;;;2.03;;
22415;SDS011;12204;50.600;4.608;2023-03-23T01:12:19;5.25;;;2.05;;
22415;SDS011;12204;50.600;4.608;2023-03-23T01:17:24;4.53;;;1.88;;
22415;SDS011;12204;50.600;4.608;2023-03-23T01:22:27;5.13;;;2.10;;
22415;SDS011;12204;50.600;4.608;2023-03-23T01:27:30;4.78;;;1.77;;
22415;SDS011;12204;50.600;4.608;2023-03-23T01:32:33;5.00;;;2.00;;
22415;SDS011;12204;50.600;4.608;2023-03-23T01:37:37;4.65;;;2.03;;
22415;SDS011;12204;50.600;4.608;2023-03-23T01:42:41;4.22;;;1.80;;
22415;SDS011;12204;50.600;4.608;2023-03-23T01:47:48;5.82;;;2.00;;
22415;SDS011;12204;50.600;4.608;2023-03-23T01:53:00;4.70;;;2.00;;
22415;SDS011;12204;50.600;4.608;2023-03-23T01:58:11;4.47;;;1.90;;
22415;SDS011;12204;50.600;4.608;2023-03-23T02:03:14;5.30;;;2.08;;
22415;SDS011;12204;50.600;4.608;2023-03-23T02:08:18;4.03;;;1.70;;
22415;SDS011;12204;50.600;4.608;2023-03-23T02:13:23;4.97;;;2.00;;
22415;SDS011;12204;50.600;4.608;2023-03-23T02:18:31;4.88;;;2.20;;
22415;SDS011;12204;50.600;4.608;2023-03-23T02:24:01;4.72;;;1.80;;
22415;SDS011;12204;50.600;4.608;2023-03-23T02:29:47;5.07;;;2.00;;
22415;SDS011;12204;50.600;4.608;2023-03-23T02:35:15;5.53;;;1.90;;
22415;SDS011;12204;50.600;4.608;2023-03-23T02:40:24;4.93;;;1.85;;
22415;SDS011;12204;50.600;4.608;2023-03-23T02:45:33;4.68;;;1.73;;
22415;SDS011;12204;50.600;4.608;2023-03-23T02:50:39;4.38;;;1.80;;
22415;SDS011;12204;50.600;4.608;2023-03-23T02:55:46;4.25;;;1.77;;
22415;SDS011;12204;50.600;4.608;2023-03-23T03:00:54;5.22;;;2.00;;
22415;SDS011;12204;50.600;4.608;2023-03-23T03:06:02;3.85;;;1.52;;
22415;SDS011;12204;50.600;4.608;2023-03-23T03:11:28;4.53;;;1.83;;
22415;SDS011;12204;50.600;4.608;2023-03-23T03:16:33;4.53;;;1.60;;
22415;SDS011;12204;50.600;4.608;2023-03-23T03:21:44;4.45;;;1.60;;
22415;SDS011;12204;50.600;4.608;2023-03-23T03:26:54;4.22;;;1.60;;
22415;SDS011;12204;50.600;4.608;2023-03-23T03:32:10;4.50;;;1.70;;
22415;SDS011;12204;50.600;4.608;2023-03-23T03:37:21;3.97;;;1.70;;
22415;SDS011;12204;50.600;4.608;2023-03-23T03:42:26;4.28;;;1.70;;
22415;SDS011;12204;50.600;4.608;2023-03-23T03:47:29;5.10;;;1.80;;
22415;SDS011;12204;50.600;4.608;2023-03-23T03:52:33;4.90;;;1.85;;
22415;SDS011;12204;50.600;4.608;2023-03-23T03:57:36;4.95;;;1.80;;
22415;SDS011;12204;50.600;4.608;2023-03-23T04:02:39;4.10;;;1.67;;
22415;SDS011;12204;50.600;4.608;2023-03-23T04:07:46;3.70;;;1.60;;
22415;SDS011;12204;50.600;4.608;2023-03-23T04:18:13;4.13;;;1.55;;
22415;SDS011;12204;50.600;4.608;2023-03-23T04:23:21;4.78;;;1.80;;
22415;SDS011;12204;50.600;4.608;2023-03-23T04:28:26;3.88;;;1.70;;
22415;SDS011;12204;50.600;4.608;2023-03-23T04:33:58;4.65;;;1.70;;
22415;SDS011;12204;50.600;4.608;2023-03-23T04:39:08;3.50;;;1.60;;
22415;SDS011;12204;50.600;4.608;2023-03-23T04:44:12;4.22;;;1.52;;
22415;SDS011;12204;50.600;4.608;2023-03-23T04:49:27;3.90;;;1.58;;
22415;SDS011;12204;50.600;4.608;2023-03-23T04:54:43;3.92;;;1.65;;
22415;SDS011;12204;50.600;4.608;2023-03-23T04:59:46;3.75;;;1.60;;
22415;SDS011;12204;50.600;4.608;2023-03-23T05:04:53;3.70;;;1.63;;
22415;SDS011;12204;50.600;4.608;2023-03-23T05:10:00;3.58;;;1.38;;
22415;SDS011;12204;50.600;4.608;2023-03-23T05:15:05;3.22;;;1.60;;
22415;SDS011;12204;50.600;4.608;2023-03-23T05:20:11;3.20;;;1.33;;
22415;SDS011;12204;50.600;4.608;2023-03-23T05:25:23;2.80;;;1.30;;
22415;SDS011;12204;50.600;4.608;2023-03-23T05:30:37;3.67;;;1.42;;
22415;SDS011;12204;50.600;4.608;2023-03-23T05:35:44;3.13;;;1.45;;
22415;SDS011;12204;50.600;4.608;2023-03-23T05:46:01;3.67;;;1.50;;
22415;SDS011;12204;50.600;4.608;2023-03-23T05:51:05;3.55;;;1.30;;
22415;SDS011;12204;50.600;4.608;2023-03-23T05:56:13;3.07;;;1.20;;
22415;SDS011;12204;50.600;4.608;2023-03-23T06:01:40;3.53;;;1.20;;
22415;SDS011;12204;50.600;4.608;2023-03-23T06:06:42;3.83;;;1.48;;
22415;SDS011;12204;50.600;4.608;2023-03-23T06:11:47;4.20;;;1.30;;
22415;SDS011;12204;50.600;4.608;2023-03-23T06:17:08;3.65;;;1.40;;
22415;SDS011;12204;50.600;4.608;2023-03-23T06:22:11;4.18;;;1.30;;
22415;SDS011;12204;50.600;4.608;2023-03-23T06:27:36;3.35;;;1.30;;
22415;SDS011;12204;50.600;4.608;2023-03-23T06:32:38;3.33;;;1.30;;
22415;SDS011;12204;50.600;4.608;2023-03-23T06:37:45;4.13;;;1.50;;
22415;SDS011;12204;50.600;4.608;2023-03-23T06:42:58;3.10;;;1.30;;
22415;SDS011;12204;50.600;4.608;2023-03-23T06:48:32;3.90;;;1.20;;
22415;SDS011;12204;50.600;4.608;2023-03-23T06:53:35;3.30;;;1.35;;
22415;SDS011;12204;50.600;4.608;2023-03-23T06:58:41;4.30;;;1.42;;
22415;SDS011;12204;50.600;4.608;2023-03-23T07:03:46;3.25;;;1.20;;
22415;SDS011;12204;50.600;4.608;2023-03-23T07:08:53;4.53;;;1.20;;
22415;SDS011;12204;50.600;4.608;2023-03-23T07:14:01;2.95;;;1.15;;
22415;SDS011;12204;50.600;4.608;2023-03-23T07:19:05;2.25;;;1.20;;
22415;SDS011;12204;50.600;4.608;2023-03-23T07:24:09;4.07;;;1.17;;
22415;SDS011;12204;50.600;4.608;2023-03-23T07:29:39;3.83;;;1.40;;
22415;SDS011;12204;50.600;4.608;2023-03-23T10:21:39;2.30;;;1.00;;
22415;SDS011;12204;50.600;4.608;2023-03-23T10:27:00;3.72;;;1.00;;
22415;SDS011;12204;50.600;4.608;2023-03-23T10:32:17;3.17;;;1.10;;
22415;SDS011;12204;50.600;4.608;2023-03-23T10:37:25;2.45;;;0.90;;
22415;SDS011;12204;50.600;4.608;2023-03-23T10:42:39;2.90;;;1.00;;
22415;SDS011;12204;50.600;4.608;2023-03-23T10:47:43;2.55;;;0.95;;
22415;SDS011;12204;50.600;4.608;2023-03-23T10:52:52;3.22;;;1.10;;
22415;SDS011;12204;50.600;4.608;2023-03-23T10:58:00;2.63;;;1.00;;
22415;SDS011;12204;50.600;4.608;2023-03-23T11:03:06;2.33;;;1.00;;
22415;SDS011;12204;50.600;4.608;2023-03-23T11:08:47;3.72;;;1.00;;
22415;SDS011;12204;50.600;4.608;2023-03-23T11:13:58;2.13;;;0.90;;
22415;SDS011;12204;50.600;4.608;2023-03-23T11:19:11;2.47;;;1.00;;
22415;SDS011;12204;50.600;4.608;2023-03-23T11:24:16;2.83;;;1.10;;
22415;SDS011;12204;50.600;4.608;2023-03-23T11:29:20;2.17;;;0.80;;
22415;SDS011;12204;50.600;4.608;2023-03-23T11:34:30;2.70;;;1.00;;
22415;SDS011;12204;50.600;4.608;2023-03-23T11:39:45;2.50;;;0.98;;
22415;SDS011;12204;50.600;4.608;2023-03-23T11:44:52;2.58;;;0.90;;
22415;SDS011;12204;50.600;4.608;2023-03-23T11:49:55;2.97;;;0.90;;
22415;SDS011;12204;50.600;4.608;2023-03-23T11:55:11;3.30;;;0.88;;
22415;SDS011;12204;50.600;4.608;2023-03-23T12:00:21;2.53;;;1.08;;
22415;SDS011;12204;50.600;4.608;2023-03-23T12:10:52;2.03;;;0.90;;
22415;SDS011;12204;50.600;4.608;2023-03-23T12:16:07;1.83;;;0.80;;
22415;SDS011;12204;50.600;4.608;2023-03-23T12:21:21;3.40;;;1.00;;
22415;SDS011;12204;50.600;4.608;2023-03-23T12:26:35;2.67;;;0.88;;
22415;SDS011;12204;50.600;4.608;2023-03-23T12:31:46;2.87;;;1.03;;
22415;SDS011;12204;50.600;4.608;2023-03-23T12:37:06;2.58;;;0.95;;
22415;SDS011;12204;50.600;4.608;2023-03-23T12:42:35;2.38;;;0.90;;
22415;SDS011;12204;50.600;4.608;2023-03-23T12:47:52;2.88;;;0.90;;
22415;SDS011;12204;50.600;4.608;2023-03-23T12:53:03;2.28;;;0.90;;
22415;SDS011;12204;50.600;4.608;2023-03-23T12:58:15;2.22;;;0.85;;
22415;SDS011;12204;50.600;4.608;2023-03-23T13:03:26;2.47;;;0.90;;
22415;SDS011;12204;50.600;4.608;2023-03-23T13:08:35;3.05;;;0.90;;
22415;SDS011;12204;50.600;4.608;2023-03-23T13:13:43;2.42;;;0.95;;
22415;SDS011;12204;50.600;4.608;2023-03-23T13:18:55;2.13;;;0.95;;
22415;SDS011;12204;50.600;4.608;2023-03-23T13:24:10;2.50;;;0.90;;
22415;SDS011;12204;50.600;4.608;2023-03-23T13:29:19;2.88;;;0.90;;
22415;SDS011;12204;50.600;4.608;2023-03-23T13:34:30;2.25;;;0.95;;
22415;SDS011;12204;50.600;4.608;2023-03-23T13:39:35;3.22;;;0.98;;
22415;SDS011;12204;50.600;4.608;2023-03-23T13:44:41;3.20;;;1.00;;
22415;SDS011;12204;50.600;4.608;2023-03-23T13:49:59;2.53;;;1.00;;
22415;SDS011;12204;50.600;4.608;2023-03-23T13:55:17;2.78;;;0.90;;
22415;SDS011;12204;50.600;4.608;2023-03-23T14:00:34;2.58;;;0.90;;
22415;SDS011;12204;50.600;4.608;2023-03-23T14:05:50;3.20;;;1.00;;
22415;SDS011;12204;50.600;4.608;2023-03-23T14:11:10;2.50;;;0.90;;
22415;SDS011;12204;50.600;4.608;2023-03-23T14:16:17;2.85;;;0.90;;
22415;SDS011;12204;50.600;4.608;2023-03-23T14:21:31;2.33;;;0.82;;
22415;SDS011;12204;50.600;4.608;2023-03-23T14:26:38;2.78;;;0.95;;
22415;SDS011;12204;50.600;4.608;2023-03-23T14:31:42;2.85;;;0.90;;
22415;SDS011;12204;50.600;4.608;2023-03-23T14:36:46;2.40;;;0.80;;
22415;SDS011;12204;50.600;4.608;2023-03-23T14:41:50;2.50;;;0.90;;
22415;SDS011;12204;50.600;4.608;2023-03-23T14:46:56;2.22;;;0.82;;
22415;SDS011;12204;50.600;4.608;2023-03-23T14:52:11;2.22;;;0.90;;
22415;SDS011;12204;50.600;4.608;2023-03-23T14:57:18;2.70;;;1.00;;
22415;SDS011;12204;50.600;4.608;2023-03-23T15:02:29;2.30;;;0.77;;
22415;SDS011;12204;50.600;4.608;2023-03-23T15:07:38;2.50;;;0.90;;
22415;SDS011;12204;50.600;4.608;2023-03-23T15:12:44;2.08;;;0.90;;
22415;SDS011;12204;50.600;4.608;2023-03-23T15:17:48;2.53;;;1.00;;
22415;SDS011;12204;50.600;4.608;2023-03-23T15:22:52;2.10;;;0.90;;
22415;SDS011;12204;50.600;4.608;2023-03-23T15:27:56;3.58;;;0.80;;
22415;SDS011;12204;50.600;4.608;2023-03-23T15:33:15;2.75;;;0.90;;
22415;SDS011;12204;50.600;4.608;2023-03-23T15:38:21;3.22;;;0.80;;
22415;SDS011;12204;50.600;4.608;2023-03-23T15:43:26;3.35;;;1.00;;
22415;SDS011;12204;50.600;4.608;2023-03-23T15:48:33;4.22;;;1.15;;
22415;SDS011;12204;50.600;4.608;2023-03-23T15:53:50;2.88;;;0.90;;
22415;SDS011;12204;50.600;4.608;2023-03-23T15:58:54;3.15;;;1.00;;
22415;SDS011;12204;50.600;4.608;2023-03-23T16:04:01;2.90;;;0.88;;
22415;SDS011;12204;50.600;4.608;2023-03-23T16:09:12;3.33;;;1.08;;
22415;SDS011;12204;50.600;4.608;2023-03-23T16:14:19;2.28;;;0.90;;
22415;SDS011;12204;50.600;4.608;2023-03-23T16:19:22;2.03;;;0.90;;
22415;SDS011;12204;50.600;4.608;2023-03-23T16:24:27;3.25;;;1.00;;
22415;SDS011;12204;50.600;4.608;2023-03-23T16:29:30;3.17;;;1.02;;
22415;SDS011;12204;50.600;4.608;2023-03-23T16:34:54;3.28;;;0.98;;
22415;SDS011;12204;50.600;4.608;2023-03-23T16:39:59;2.70;;;1.02;;
22415;SDS011;12204;50.600;4.608;2023-03-23T16:45:03;2.88;;;1.00;;
22415;SDS011;12204;50.600;4.608;2023-03-23T16:50:10;3.08;;;1.00;;
22415;SDS011;12204;50.600;4.608;2023-03-23T16:55:17;2.30;;;0.80;;
22415;SDS011;12204;50.600;4.608;2023-03-23T17:00:21;2.45;;;0.80;;
22415;SDS011;12204;50.600;4.608;2023-03-23T17:05:26;3.00;;;0.90;;
22415;SDS011;12204;50.600;4.608;2023-03-23T17:10:32;3.85;;;1.10;;
22415;SDS011;12204;50.600;4.608;2023-03-23T17:15:37;4.00;;;1.13;;
22415;SDS011;12204;50.600;4.608;2023-03-23T17:20:46;2.33;;;0.93;;
22415;SDS011;12204;50.600;4.608;2023-03-23T17:25:51;3.13;;;1.08;;
22415;SDS011;12204;50.600;4.608;2023-03-23T17:30:55;2.70;;;0.90;;
22415;SDS011;12204;50.600;4.608;2023-03-23T17:35:59;3.22;;;1.10;;
22415;SDS011;12204;50.600;4.608;2023-03-23T17:41:04;2.72;;;1.00;;
22415;SDS011;12204;50.600;4.608;2023-03-23T17:46:09;1.83;;;0.90;;
22415;SDS011;12204;50.600;4.608;2023-03-23T17:51:12;3.67;;;1.10;;
22415;SDS011;12204;50.600;4.608;2023-03-23T17:56:18;2.90;;;0.95;;
22415;SDS011;12204;50.600;4.608;2023-03-23T18:01:21;3.55;;;1.10;;
22415;SDS011;12204;50.600;4.608;2023-03-23T18:06:25;2.28;;;0.90;;
22415;SDS011;12204;50.600;4.608;2023-03-23T18:11:29;3.92;;;1.20;;
22415;SDS011;12204;50.600;4.608;2023-03-23T18:16:33;3.60;;;1.13;;
22415;SDS011;12204;50.600;4.608;2023-03-23T18:21:37;1.90;;;0.80;;
22415;SDS011;12204;50.600;4.608;2023-03-23T18:26:42;2.78;;;1.10;;
22415;SDS011;12204;50.600;4.608;2023-03-23T18:31:45;3.67;;;1.10;;
22415;SDS011;12204;50.600;4.608;2023-03-23T18:36:49;4.15;;;1.10;;
22415;SDS011;12204;50.600;4.608;2023-03-23T18:41:54;3.15;;;1.00;;
22415;SDS011;12204;50.600;4.608;2023-03-23T18:46:57;3.10;;;0.90;;
22415;SDS011;12204;50.600;4.608;2023-03-23T18:52:01;3.25;;;1.10;;
22415;SDS011;12204;50.600;4.608;2023-03-23T18:57:07;2.65;;;1.05;;
22415;SDS011;12204;50.600;4.608;2023-03-23T19:02:10;2.22;;;0.90;;
22415;SDS011;12204;50.600;4.608;2023-03-23T19:07:14;4.47;;;1.00;;
22415;SDS011;12204;50.600;4.608;2023-03-23T19:12:21;3.15;;;1.10;;
22415;SDS011;12204;50.600;4.608;2023-03-23T19:17:25;2.83;;;1.10;;
22415;SDS011;12204;50.600;4.608;2023-03-23T19:22:28;3.33;;;1.10;;
22415;SDS011;12204;50.600;4.608;2023-03-23T19:27:33;3.90;;;1.10;;
22415;SDS011;12204;50.600;4.608;2023-03-23T19:32:57;3.38;;;1.17;;
22415;SDS011;12204;50.600;4.608;2023-03-23T19:38:01;3.97;;;1.20;;
22415;SDS011;12204;50.600;4.608;2023-03-23T19:43:06;4.63;;;1.10;;
22415;SDS011;12204;50.600;4.608;2023-03-23T19:48:10;3.60;;;1.30;;
22415;SDS011;12204;50.600;4.608;2023-03-23T19:53:14;4.10;;;1.30;;
22415;SDS011;12204;50.600;4.608;2023-03-23T19:58:21;4.35;;;1.30;;
22415;SDS011;12204;50.600;4.608;2023-03-23T20:03:25;2.95;;;1.20;;
22415;SDS011;12204;50.600;4.608;2023-03-23T20:08:28;3.85;;;1.40;;
22415;SDS011;12204;50.600;4.608;2023-03-23T20:13:34;3.78;;;1.30;;
22415;SDS011;12204;50.600;4.608;2023-03-23T20:18:38;4.43;;;1.40;;
22415;SDS011;12204;50.600;4.608;2023-03-23T20:23:42;3.25;;;1.30;;
22415;SDS011;12204;50.600;4.608;2023-03-23T20:28:47;4.00;;;1.40;;
22415;SDS011;12204;50.600;4.608;2023-03-23T20:33:52;5.50;;;1.35;;
22415;SDS011;12204;50.600;4.608;2023-03-23T20:39:03;4.60;;;1.42;;
22415;SDS011;12204;50.600;4.608;2023-03-23T20:44:13;4.30;;;1.30;;
22415;SDS011;12204;50.600;4.608;2023-03-23T20:49:17;4.18;;;1.40;;
22415;SDS011;12204;50.600;4.608;2023-03-23T20:54:22;4.05;;;1.40;;
22415;SDS011;12204;50.600;4.608;2023-03-23T20:59:27;4.03;;;1.10;;
22415;SDS011;12204;50.600;4.608;2023-03-23T21:04:30;5.15;;;1.40;;
22415;SDS011;12204;50.600;4.608;2023-03-23T21:09:34;4.35;;;1.30;;
22415;SDS011;12204;50.600;4.608;2023-03-23T21:14:39;4.25;;;1.30;;
22415;SDS011;12204;50.600;4.608;2023-03-23T21:19:42;3.65;;;1.30;;
22415;SDS011;12204;50.600;4.608;2023-03-23T21:24:46;3.90;;;1.35;;
22415;SDS011;12204;50.600;4.608;2023-03-23T21:29:54;4.40;;;1.30;;
22415;SDS011;12204;50.600;4.608;2023-03-23T21:34:59;4.72;;;1.38;;
22415;SDS011;12204;50.600;4.608;2023-03-23T21:40:04;3.92;;;1.20;;
22415;SDS011;12204;50.600;4.608;2023-03-23T21:45:15;3.40;;;1.48;;
22415;SDS011;12204;50.600;4.608;2023-03-23T21:50:21;3.92;;;1.40;;
22415;SDS011;12204;50.600;4.608;2023-03-23T21:55:25;4.10;;;1.40;;
22415;SDS011;12204;50.600;4.608;2023-03-23T22:00:31;3.13;;;1.20;;
22415;SDS011;12204;50.600;4.608;2023-03-23T22:05:37;4.22;;;1.50;;
22415;SDS011;12204;50.600;4.608;2023-03-23T22:10:41;4.03;;;1.30;;
22415;SDS011;12204;50.600;4.608;2023-03-23T22:16:04;4.65;;;1.55;;
22415;SDS011;12204;50.600;4.608;2023-03-23T22:21:11;4.35;;;1.55;;
22415;SDS011;12204;50.600;4.608;2023-03-23T22:26:17;4.53;;;1.60;;
22415;SDS011;12204;50.600;4.608;2023-03-23T22:31:24;5.47;;;1.50;;
22415;SDS011;12204;50.600;4.608;2023-03-23T22:36:34;5.90;;;1.90;;
22415;SDS011;12204;50.600;4.608;2023-03-23T22:41:39;3.95;;;1.60;;
22415;SDS011;12204;50.600;4.608;2023-03-23T22:46:46;6.57;;;1.60;;
22415;SDS011;12204;50.600;4.608;2023-03-23T22:51:50;4.70;;;1.38;;
22415;SDS011;12204;50.600;4.608;2023-03-23T22:56:53;4.53;;;1.50;;
22415;SDS011;12204;50.600;4.608;2023-03-23T23:01:58;5.15;;;1.63;;
22415;SDS011;12204;50.600;4.608;2023-03-23T23:07:02;4.68;;;1.70;;
22415;SDS011;12204;50.600;4.608;2023-03-23T23:12:13;5.05;;;1.73;;
22415;SDS011;12204;50.600;4.608;2023-03-23T23:17:19;4.78;;;1.50;;
22415;SDS011;12204;50.600;4.608;2023-03-23T23:22:23;4.68;;;1.55;;
22415;SDS011;12204;50.600;4.608;2023-03-23T23:27:27;5.20;;;1.75;;
22415;SDS011;12204;50.600;4.608;2023-03-23T23:32:35;5.13;;;1.60;;
22415;SDS011;12204;50.600;4.608;2023-03-23T23:37:39;6.35;;;1.90;;
22415;SDS011;12204;50.600;4.608;2023-03-23T23:42:44;5.45;;;1.75;;
22415;SDS011;12204;50.600;4.608;2023-03-23T23:47:50;3.67;;;1.33;;
22415;SDS011;12204;50.600;4.608;2023-03-23T23:52:54;6.78;;;1.88;;
22415;SDS011;12204;50.600;4.608;2023-03-23T23:57:59;4.65;;;1.60;;
